createdAt,value
2019-06-26T00:00:55.914Z,998.67
2019-06-26T00:01:55.923Z,998.69
2019-06-26T00:02:55.895Z,998.65
2019-06-26T00:03:55.880Z,998.65
2019-06-26T00:04:55.875Z,998.66
2019-06-26T00:05:55.858Z,998.70
2019-06-26T00:06:55.931Z,998.66
2019-06-26T00:07:55.856Z,998.69
2019-06-26T00:08:55.831Z,998.68
2019-06-26T00:09:55.815Z,998.67
2019-06-26T00:10:55.799Z,998.68
2019-06-26T00:11:55.794Z,998.70
2019-06-26T00:12:55.784Z,998.68
2019-06-26T00:13:55.790Z,998.67
2019-06-26T00:14:55.757Z,998.72
2019-06-26T00:15:55.812Z,998.72
2019-06-26T00:16:55.762Z,998.71
2019-06-26T00:17:55.725Z,998.70
2019-06-26T00:18:55.710Z,998.71
2019-06-26T00:19:55.720Z,998.68
2019-06-26T00:20:55.685Z,998.66
2019-06-26T00:21:55.679Z,998.68
2019-06-26T00:22:55.663Z,998.71
2019-06-26T00:23:55.652Z,998.68
2019-06-26T00:24:55.637Z,998.72
2019-06-26T00:25:55.643Z,998.70
2019-06-26T00:26:55.618Z,998.74
2019-06-26T00:27:55.603Z,998.73
2019-06-26T00:28:55.593Z,998.76
2019-06-26T00:29:55.583Z,998.76
2019-06-26T00:30:55.579Z,998.78
2019-06-26T00:31:55.575Z,998.75
2019-06-26T00:32:55.554Z,998.78
2019-06-26T00:33:55.556Z,998.76
2019-06-26T00:34:55.542Z,998.79
2019-06-26T00:35:55.517Z,998.80
2019-06-26T00:36:55.502Z,998.78
2019-06-26T00:37:55.510Z,998.81
2019-06-26T00:38:55.484Z,998.81
2019-06-26T00:39:55.468Z,998.83
2019-06-26T00:40:55.455Z,998.81
2019-06-26T00:41:55.452Z,998.85
2019-06-26T00:42:55.440Z,998.81
2019-06-26T00:43:55.437Z,998.87
2019-06-26T00:44:55.418Z,998.88
2019-06-26T00:45:55.397Z,998.87
2019-06-26T00:46:55.392Z,998.86
2019-06-26T00:47:55.375Z,998.87
2019-06-26T00:48:55.363Z,998.86
2019-06-26T00:49:55.392Z,998.94
2019-06-26T00:50:55.338Z,998.95
2019-06-26T00:51:55.329Z,998.95
2019-06-26T00:52:55.319Z,998.96
2019-06-26T00:53:55.308Z,998.98
2019-06-26T00:54:55.295Z,998.92
2019-06-26T00:55:55.366Z,998.99
2019-06-26T00:56:55.271Z,998.98
2019-06-26T00:57:55.257Z,998.96
2019-06-26T00:58:55.263Z,999.03
2019-06-26T00:59:55.246Z,999.01
2019-06-26T01:00:55.229Z,999.01
2019-06-26T01:01:55.227Z,998.99
2019-06-26T01:02:55.204Z,999.05
2019-06-26T01:03:55.192Z,999.02
2019-06-26T01:04:55.183Z,998.98
2019-06-26T01:05:55.168Z,998.99
2019-06-26T01:06:55.159Z,999.02
2019-06-26T01:07:55.161Z,999.04
2019-06-26T01:08:55.128Z,999.03
2019-06-26T01:09:55.131Z,999.02
2019-06-26T01:10:55.107Z,998.98
2019-06-26T01:11:55.107Z,999.05
2019-06-26T01:12:55.083Z,999.04
2019-06-26T01:13:58.356Z,999.05
2019-06-26T01:14:55.064Z,999.08
2019-06-26T01:15:55.048Z,999.08
2019-06-26T01:16:55.040Z,999.08
2019-06-26T01:17:55.029Z,999.10
2019-06-26T01:18:55.020Z,999.08
2019-06-26T01:19:55.048Z,999.06
2019-06-26T01:20:54.998Z,999.02
2019-06-26T01:21:54.984Z,999.03
2019-06-26T01:22:54.973Z,999.05
2019-06-26T01:23:54.958Z,999.03
2019-06-26T01:24:54.946Z,999.05
2019-06-26T01:25:54.948Z,999.07
2019-06-26T01:26:54.923Z,999.02
2019-06-26T01:27:54.914Z,999.03
2019-06-26T01:28:54.898Z,999.02
2019-06-26T01:29:54.891Z,999.08
2019-06-26T01:30:54.876Z,999.08
2019-06-26T01:31:54.884Z,999.05
2019-06-26T01:32:54.858Z,999.06
2019-06-26T01:33:54.838Z,999.12
2019-06-26T01:34:54.828Z,999.05
2019-06-26T01:35:54.824Z,999.01
2019-06-26T01:36:54.805Z,999.06
2019-06-26T01:37:54.807Z,999.06
2019-06-26T01:38:54.786Z,999.04
2019-06-26T01:39:54.777Z,999.08
2019-06-26T01:40:54.764Z,999.14
2019-06-26T01:41:54.768Z,999.11
2019-06-26T01:42:54.738Z,999.14
2019-06-26T01:43:54.742Z,999.16
2019-06-26T01:44:54.714Z,999.15
2019-06-26T01:45:54.702Z,999.13
2019-06-26T01:46:54.692Z,999.14
2019-06-26T01:47:54.684Z,999.12
2019-06-26T01:48:54.664Z,999.12
2019-06-26T01:49:54.672Z,999.14
2019-06-26T01:50:54.645Z,999.16
2019-06-26T01:51:54.638Z,999.14
2019-06-26T01:52:54.622Z,999.13
2019-06-26T01:53:54.607Z,999.12
2019-06-26T01:54:54.597Z,999.15
2019-06-26T01:55:54.630Z,999.21
2019-06-26T01:56:54.575Z,999.19
2019-06-26T01:57:54.561Z,999.17
2019-06-26T01:58:54.562Z,999.20
2019-06-26T01:59:54.546Z,999.18
2019-06-26T02:00:54.534Z,999.15
2019-06-26T02:01:54.532Z,999.21
2019-06-26T02:02:54.503Z,999.17
2019-06-26T02:03:54.505Z,999.24
2019-06-26T02:04:54.486Z,999.16
2019-06-26T02:05:54.474Z,999.26
2019-06-26T02:06:54.459Z,999.25
2019-06-26T02:07:54.473Z,999.21
2019-06-26T02:08:54.435Z,999.31
2019-06-26T02:09:54.477Z,999.25
2019-06-26T02:10:54.415Z,999.31
2019-06-26T02:11:54.402Z,999.30
2019-06-26T02:12:54.390Z,999.33
2019-06-26T02:13:54.394Z,999.30
2019-06-26T02:14:54.368Z,999.34
2019-06-26T02:15:54.359Z,999.36
2019-06-26T02:16:54.342Z,999.33
2019-06-26T02:17:54.329Z,999.34
2019-06-26T02:18:54.318Z,999.36
2019-06-26T02:19:54.324Z,999.31
2019-06-26T02:20:54.331Z,999.31
2019-06-26T02:21:54.284Z,999.35
2019-06-26T02:22:54.280Z,999.34
2019-06-26T02:23:54.269Z,999.34
2019-06-26T02:24:54.264Z,999.34
2019-06-26T02:25:54.256Z,999.35
2019-06-26T02:26:54.227Z,999.38
2019-06-26T02:27:54.211Z,999.36
2019-06-26T02:28:54.202Z,999.36
2019-06-26T02:29:54.191Z,999.37
2019-06-26T02:30:54.182Z,999.33
2019-06-26T02:31:54.178Z,999.30
2019-06-26T02:32:54.160Z,999.34
2019-06-26T02:33:54.147Z,999.36
2019-06-26T02:34:54.133Z,999.39
2019-06-26T02:35:54.125Z,999.40
2019-06-26T02:36:54.113Z,999.41
2019-06-26T02:37:54.110Z,999.38
2019-06-26T02:38:54.086Z,999.39
2019-06-26T02:39:54.071Z,999.41
2019-06-26T02:40:54.063Z,999.44
2019-06-26T02:41:54.048Z,999.44
2019-06-26T02:42:54.036Z,999.44
2019-06-26T02:43:54.043Z,999.44
2019-06-26T02:44:54.667Z,999.45
2019-06-26T02:45:54.037Z,999.47
2019-06-26T02:46:53.999Z,999.41
2019-06-26T02:47:53.980Z,999.43
2019-06-26T02:48:53.988Z,999.44
2019-06-26T02:49:53.975Z,999.46
2019-06-26T02:50:53.946Z,999.42
2019-06-26T02:51:53.937Z,999.46
2019-06-26T02:52:53.926Z,999.50
2019-06-26T02:53:53.911Z,999.51
2019-06-26T02:54:53.902Z,999.46
2019-06-26T02:55:53.929Z,999.49
2019-06-26T02:56:53.873Z,999.47
2019-06-26T02:57:53.867Z,999.51
2019-06-26T02:58:53.850Z,999.52
2019-06-26T02:59:53.845Z,999.51
2019-06-26T03:00:53.832Z,999.52
2019-06-26T03:01:53.868Z,999.54
2019-06-26T03:02:53.813Z,999.60
2019-06-26T03:03:53.798Z,999.57
2019-06-26T03:04:53.784Z,999.64
2019-06-26T03:05:53.772Z,999.64
2019-06-26T03:06:53.759Z,999.58
2019-06-26T03:07:53.777Z,999.64
2019-06-26T03:08:53.739Z,999.65
2019-06-26T03:09:53.731Z,999.65
2019-06-26T03:10:53.720Z,999.64
2019-06-26T03:11:53.707Z,999.72
2019-06-26T03:12:53.691Z,999.70
2019-06-26T03:13:53.698Z,999.68
2019-06-26T03:15:07.846Z,999.73
2019-06-26T03:15:54.656Z,999.73
2019-06-26T03:16:53.645Z,999.72
2019-06-26T03:17:55.649Z,999.76
2019-06-26T03:18:53.626Z,999.72
2019-06-26T03:19:53.632Z,999.77
2019-06-26T03:20:53.610Z,999.76
2019-06-26T03:21:53.598Z,999.75
2019-06-26T03:22:53.580Z,999.76
2019-06-26T03:23:53.570Z,999.76
2019-06-26T03:24:53.558Z,999.74
2019-06-26T03:25:53.563Z,999.80
2019-06-26T03:26:53.535Z,999.78
2019-06-26T03:27:53.527Z,999.81
2019-06-26T03:28:53.512Z,999.81
2019-06-26T03:29:53.500Z,999.85
2019-06-26T03:30:53.492Z,999.87
2019-06-26T03:31:53.498Z,999.88
2019-06-26T03:32:53.476Z,999.90
2019-06-26T03:33:53.457Z,999.86
2019-06-26T03:34:53.444Z,999.88
2019-06-26T03:35:53.430Z,999.89
2019-06-26T03:36:53.419Z,999.97
2019-06-26T03:37:53.425Z,999.90
2019-06-26T03:38:53.414Z,999.91
2019-06-26T03:39:53.385Z,999.93
2019-06-26T03:40:53.373Z,999.93
2019-06-26T03:41:53.363Z,999.93
2019-06-26T03:42:53.356Z,999.97
2019-06-26T03:43:53.359Z,999.98
2019-06-26T03:44:53.328Z,999.98
2019-06-26T03:45:53.320Z,1000.04
2019-06-26T03:46:53.362Z,1000.02
2019-06-26T03:47:53.301Z,1000.06
2019-06-26T03:48:53.289Z,1000.07
2019-06-26T03:49:53.301Z,1000.03
2019-06-26T03:50:53.266Z,1000.09
2019-06-26T03:51:53.251Z,1000.07
2019-06-26T03:52:53.252Z,1000.13
2019-06-26T03:53:53.227Z,1000.08
2019-06-26T03:54:53.219Z,1000.13
2019-06-26T03:55:53.222Z,1000.15
2019-06-26T03:56:53.202Z,1000.22
2019-06-26T03:57:53.197Z,1000.19
2019-06-26T03:58:53.181Z,1000.18
2019-06-26T03:59:53.163Z,1000.19
2019-06-26T04:00:53.149Z,1000.13
2019-06-26T04:01:53.157Z,1000.22
2019-06-26T04:02:53.136Z,1000.18
2019-06-26T04:03:53.120Z,1000.22
2019-06-26T04:04:53.110Z,1000.23
2019-06-26T04:05:53.096Z,1000.15
2019-06-26T04:06:53.102Z,1000.20
2019-06-26T04:07:53.093Z,1000.27
2019-06-26T04:08:53.064Z,1000.19
2019-06-26T04:09:53.053Z,1000.25
2019-06-26T04:10:53.044Z,1000.26
2019-06-26T04:11:53.033Z,1000.24
2019-06-26T04:12:53.019Z,1000.20
2019-06-26T04:13:53.020Z,1000.25
2019-06-26T04:14:53.002Z,1000.30
2019-06-26T04:15:52.986Z,1000.26
2019-06-26T04:16:52.972Z,1000.26
2019-06-26T04:17:52.965Z,1000.29
2019-06-26T04:18:52.955Z,1000.33
2019-06-26T04:19:52.965Z,1000.34
2019-06-26T04:20:52.925Z,1000.39
2019-06-26T04:21:52.922Z,1000.34
2019-06-26T04:22:52.905Z,1000.39
2019-06-26T04:23:52.889Z,1000.39
2019-06-26T04:24:52.878Z,1000.46
2019-06-26T04:25:52.897Z,1000.42
2019-06-26T04:26:52.852Z,1000.45
2019-06-26T04:27:52.861Z,1000.43
2019-06-26T04:28:52.832Z,1000.47
2019-06-26T04:29:52.818Z,1000.50
2019-06-26T04:30:52.812Z,1000.51
2019-06-26T04:31:52.818Z,1000.59
2019-06-26T04:32:52.790Z,1000.61
2019-06-26T04:33:52.774Z,1000.63
2019-06-26T04:34:54.540Z,1000.66
2019-06-26T04:35:52.757Z,1000.64
2019-06-26T04:36:52.764Z,1000.58
2019-06-26T04:37:52.743Z,1000.65
2019-06-26T04:38:52.718Z,1000.66
2019-06-26T04:39:52.707Z,1000.65
2019-06-26T04:40:52.695Z,1000.73
2019-06-26T04:41:52.697Z,1000.70
2019-06-26T04:42:52.678Z,1000.67
2019-06-26T04:43:52.683Z,1000.74
2019-06-26T04:44:52.662Z,1000.77
2019-06-26T04:45:58.029Z,1000.77
2019-06-26T04:46:53.628Z,1000.78
2019-06-26T04:47:52.619Z,1000.81
2019-06-26T04:48:52.607Z,1000.79
2019-06-26T04:49:52.618Z,1000.82
2019-06-26T04:50:52.588Z,1000.88
2019-06-26T04:51:52.582Z,1000.87
2019-06-26T04:52:52.563Z,1000.88
2019-06-26T04:53:55.628Z,1000.86
2019-06-26T04:54:52.536Z,1000.90
2019-06-26T04:55:52.543Z,1000.91
2019-06-26T04:56:52.524Z,1000.86
2019-06-26T04:57:52.510Z,1000.93
2019-06-26T04:58:52.492Z,1000.95
2019-06-26T04:59:52.498Z,1000.96
2019-06-26T05:00:52.633Z,1000.96
2019-06-26T05:01:52.486Z,1001.04
2019-06-26T05:02:52.453Z,1000.96
2019-06-26T05:03:52.443Z,1001.02
2019-06-26T05:04:52.431Z,1001.00
2019-06-26T05:05:52.421Z,1001.02
2019-06-26T05:06:52.408Z,1000.99
2019-06-26T05:07:53.829Z,1001.02
2019-06-26T05:08:52.465Z,1001.00
2019-06-26T05:09:52.381Z,1001.00
2019-06-26T05:10:52.368Z,1001.08
2019-06-26T05:11:52.354Z,1001.09
2019-06-26T05:12:52.348Z,1001.14
2019-06-26T05:13:52.364Z,1001.10
2019-06-26T05:14:52.319Z,1001.11
2019-06-26T05:15:52.308Z,1001.14
2019-06-26T05:16:52.298Z,1001.15
2019-06-26T05:17:52.292Z,1001.13
2019-06-26T05:18:52.278Z,1001.15
2019-06-26T05:19:52.281Z,1001.22
2019-06-26T05:20:52.258Z,1001.19
2019-06-26T05:21:52.242Z,1001.25
2019-06-26T05:22:52.237Z,1001.17
2019-06-26T05:23:52.223Z,1001.25
2019-06-26T05:24:52.215Z,1001.24
2019-06-26T05:25:52.212Z,1001.24
2019-06-26T05:26:52.190Z,1001.25
2019-06-26T05:27:52.185Z,1001.30
2019-06-26T05:28:52.166Z,1001.31
2019-06-26T05:29:54.397Z,1001.38
2019-06-26T05:30:52.149Z,1001.40
2019-06-26T05:31:52.183Z,1001.41
2019-06-26T05:32:52.142Z,1001.45
2019-06-26T05:33:52.108Z,1001.41
2019-06-26T05:34:52.547Z,1001.42
2019-06-26T05:35:52.090Z,1001.44
2019-06-26T05:36:52.091Z,1001.46
2019-06-26T05:37:52.084Z,1001.49
2019-06-26T05:38:52.067Z,1001.47
2019-06-26T05:39:54.726Z,1001.52
2019-06-26T05:40:52.040Z,1001.57
2019-06-26T05:41:52.045Z,1001.58
2019-06-26T05:42:52.032Z,1001.64
2019-06-26T05:43:52.115Z,1001.61
2019-06-26T05:44:51.993Z,1001.65
2019-06-26T05:45:51.990Z,1001.69
2019-06-26T05:46:51.989Z,1001.71
2019-06-26T05:47:51.960Z,1001.68
2019-06-26T05:48:51.966Z,1001.67
2019-06-26T05:49:51.955Z,1001.75
2019-06-26T05:50:51.978Z,1001.74
2019-06-26T05:51:51.951Z,1001.76
2019-06-26T05:52:51.908Z,1001.78
2019-06-26T05:53:51.905Z,1001.89
2019-06-26T05:54:51.898Z,1001.95
2019-06-26T05:55:52.893Z,1001.90
2019-06-26T05:56:51.941Z,1001.86
2019-06-26T05:57:51.859Z,1001.90
2019-06-26T05:58:51.851Z,1001.89
2019-06-26T05:59:51.852Z,1001.93
2019-06-26T06:00:51.860Z,1001.98
2019-06-26T06:01:51.843Z,1001.99
2019-06-26T06:02:53.966Z,1001.99
2019-06-26T06:03:51.798Z,1001.97
2019-06-26T06:04:51.805Z,1001.98
2019-06-26T06:05:51.804Z,1001.98
2019-06-26T06:06:51.771Z,1002.03
2019-06-26T06:07:51.773Z,1002.03
2019-06-26T06:08:51.739Z,1002.04
2019-06-26T06:09:51.739Z,1002.05
2019-06-26T06:10:51.729Z,1002.05
2019-06-26T06:11:51.707Z,1002.11
2019-06-26T06:12:51.709Z,1002.10
2019-06-26T06:13:51.723Z,1002.14
2019-06-26T06:14:51.723Z,1002.17
2019-06-26T06:15:51.672Z,1002.14
2019-06-26T06:16:51.676Z,1002.16
2019-06-26T06:17:51.671Z,1002.16
2019-06-26T06:18:51.647Z,1002.09
2019-06-26T06:19:51.740Z,1002.13
2019-06-26T06:20:51.691Z,1002.12
2019-06-26T06:21:51.608Z,1002.14
2019-06-26T06:22:51.592Z,1002.16
2019-06-26T06:23:51.617Z,1002.21
2019-06-26T06:24:51.577Z,1002.16
2019-06-26T06:25:51.671Z,1002.21
2019-06-26T06:26:51.603Z,1002.24
2019-06-26T06:27:51.569Z,1002.26
2019-06-26T06:28:51.599Z,1002.24
2019-06-26T06:29:51.534Z,1002.26
2019-06-26T06:30:51.543Z,1002.28
2019-06-26T06:31:51.549Z,1002.30
2019-06-26T06:32:51.550Z,1002.33
2019-06-26T06:33:51.522Z,1002.29
2019-06-26T06:34:51.476Z,1002.30
2019-06-26T06:35:51.458Z,1002.40
2019-06-26T06:36:51.455Z,1002.41
2019-06-26T06:37:51.482Z,1002.43
2019-06-26T06:38:51.537Z,1002.44
2019-06-26T06:39:51.424Z,1002.47
2019-06-26T06:40:51.410Z,1002.49
2019-06-26T06:41:51.430Z,1002.53
2019-06-26T06:42:51.399Z,1002.53
2019-06-26T06:43:51.472Z,1002.53
2019-06-26T06:44:51.395Z,1002.55
2019-06-26T06:45:51.365Z,1002.51
2019-06-26T06:47:03.219Z,1002.57
2019-06-26T06:47:52.356Z,1002.61
2019-06-26T06:48:51.367Z,1002.58
2019-06-26T06:49:51.369Z,1002.62
2019-06-26T06:50:51.340Z,1002.64
2019-06-26T06:51:51.305Z,1002.66
2019-06-26T06:52:51.289Z,1002.64
2019-06-26T06:53:51.278Z,1002.63
2019-06-26T06:54:51.273Z,1002.59
2019-06-26T06:55:51.310Z,1002.66
2019-06-26T06:56:51.289Z,1002.61
2019-06-26T06:57:51.243Z,1002.66
2019-06-26T06:58:51.240Z,1002.63
2019-06-26T06:59:51.226Z,1002.66
2019-06-26T07:00:51.240Z,1002.64
2019-06-26T07:01:51.237Z,1002.70
2019-06-26T07:02:53.015Z,1002.68
2019-06-26T07:03:51.190Z,1002.65
2019-06-26T07:04:51.180Z,1002.73
2019-06-26T07:05:51.180Z,1002.76
2019-06-26T07:06:51.195Z,1002.82
2019-06-26T07:07:51.541Z,1002.82
2019-06-26T07:08:51.146Z,1002.84
2019-06-26T07:09:51.129Z,1002.86
2019-06-26T07:10:51.120Z,1002.88
2019-06-26T07:11:51.108Z,1002.86
2019-06-26T07:12:51.102Z,1002.92
2019-06-26T07:13:51.119Z,1002.90
2019-06-26T07:14:51.102Z,1002.95
2019-06-26T07:15:51.066Z,1002.94
2019-06-26T07:16:51.061Z,1002.94
2019-06-26T07:17:51.090Z,1002.93
2019-06-26T07:18:51.064Z,1002.93
2019-06-26T07:19:52.954Z,1002.93
2019-06-26T07:20:51.018Z,1002.99
2019-06-26T07:21:51.015Z,1002.95
2019-06-26T07:22:51.008Z,1003.00
2019-06-26T07:23:51.055Z,1003.01
2019-06-26T07:24:51.015Z,1003.02
2019-06-26T07:25:50.982Z,1003.06
2019-06-26T07:26:51.939Z,1003.02
2019-06-26T07:27:50.958Z,1003.06
2019-06-26T07:28:50.999Z,1003.08
2019-06-26T07:29:50.948Z,1003.10
2019-06-26T07:30:50.951Z,1003.13
2019-06-26T07:31:50.923Z,1003.14
2019-06-26T07:32:50.914Z,1003.19
2019-06-26T07:33:50.908Z,1003.15
2019-06-26T07:34:50.922Z,1003.21
2019-06-26T07:35:50.892Z,1003.21
2019-06-26T07:36:50.901Z,1003.20
2019-06-26T07:37:50.920Z,1003.21
2019-06-26T07:38:50.877Z,1003.20
2019-06-26T07:39:50.851Z,1003.23
2019-06-26T07:40:50.843Z,1003.27
2019-06-26T07:41:50.865Z,1003.27
2019-06-26T07:42:50.853Z,1003.28
2019-06-26T07:43:50.824Z,1003.33
2019-06-26T07:44:50.814Z,1003.32
2019-06-26T07:45:50.799Z,1003.31
2019-06-26T07:46:50.784Z,1003.33
2019-06-26T07:47:50.794Z,1003.30
2019-06-26T07:48:50.791Z,1003.33
2019-06-26T07:49:50.763Z,1003.34
2019-06-26T07:50:50.751Z,1003.34
2019-06-26T07:51:50.753Z,1003.39
2019-06-26T07:52:50.819Z,1003.41
2019-06-26T07:53:50.756Z,1003.40
2019-06-26T07:54:50.741Z,1003.41
2019-06-26T07:55:50.704Z,1003.39
2019-06-26T07:56:50.720Z,1003.41
2019-06-26T07:57:50.724Z,1003.41
2019-06-26T07:58:50.687Z,1003.36
2019-06-26T07:59:50.669Z,1003.34
2019-06-26T08:00:50.681Z,1003.35
2019-06-26T08:01:50.649Z,1003.34
2019-06-26T08:02:50.637Z,1003.32
2019-06-26T08:03:50.639Z,1003.35
2019-06-26T08:04:50.622Z,1003.31
2019-06-26T08:05:50.614Z,1003.35
2019-06-26T08:06:50.637Z,1003.36
2019-06-26T08:07:50.671Z,1003.37
2019-06-26T08:08:50.613Z,1003.36
2019-06-26T08:09:50.612Z,1003.38
2019-06-26T08:10:50.606Z,1003.42
2019-06-26T08:11:50.568Z,1003.41
2019-06-26T08:12:50.567Z,1003.42
2019-06-26T08:13:50.544Z,1003.41
2019-06-26T08:14:50.540Z,1003.45
2019-06-26T08:15:50.535Z,1003.37
2019-06-26T08:16:50.517Z,1003.34
2019-06-26T08:18:00.561Z,1003.38
2019-06-26T08:18:51.523Z,1003.37
2019-06-26T08:19:50.492Z,1003.40
2019-06-26T08:21:10.647Z,1003.38
2019-06-26T08:21:51.481Z,1003.37
2019-06-26T08:22:50.469Z,1003.40
2019-06-26T08:23:50.488Z,1003.43
2019-06-26T08:24:50.468Z,1003.41
2019-06-26T08:25:50.445Z,1003.39
2019-06-26T08:26:50.454Z,1003.39
2019-06-26T08:27:50.430Z,1003.39
2019-06-26T08:28:50.416Z,1003.39
2019-06-26T08:29:50.428Z,1003.41
2019-06-26T08:30:50.418Z,1003.39
2019-06-26T08:31:50.417Z,1003.38
2019-06-26T08:32:50.424Z,1003.37
2019-06-26T08:33:50.386Z,1003.39
2019-06-26T08:34:50.379Z,1003.41
2019-06-26T08:35:50.380Z,1003.43
2019-06-26T08:36:50.403Z,1003.37
2019-06-26T08:37:50.344Z,1003.41
2019-06-26T08:38:50.351Z,1003.40
2019-06-26T08:39:50.334Z,1003.39
2019-06-26T08:40:50.319Z,1003.37
2019-06-26T08:41:50.324Z,1003.35
2019-06-26T08:42:50.322Z,1003.32
2019-06-26T08:43:50.299Z,1003.30
2019-06-26T08:44:50.288Z,1003.35
2019-06-26T08:45:50.286Z,1003.31
2019-06-26T08:46:50.275Z,1003.34
2019-06-26T08:47:50.261Z,1003.33
2019-06-26T08:48:52.058Z,1003.33
2019-06-26T08:49:50.247Z,1003.33
2019-06-26T08:50:50.241Z,1003.31
2019-06-26T08:51:50.229Z,1003.35
2019-06-26T08:52:50.246Z,1003.31
2019-06-26T08:53:50.224Z,1003.34
2019-06-26T08:54:50.242Z,1003.34
2019-06-26T08:55:50.200Z,1003.32
2019-06-26T08:56:50.187Z,1003.27
2019-06-26T08:57:50.184Z,1003.25
2019-06-26T08:58:50.175Z,1003.22
2019-06-26T08:59:50.174Z,1003.20
2019-06-26T09:00:50.190Z,1003.24
2019-06-26T09:01:50.155Z,1003.25
2019-06-26T09:02:50.141Z,1003.23
2019-06-26T09:03:50.139Z,1003.25
2019-06-26T09:04:50.127Z,1003.28
2019-06-26T09:05:50.120Z,1003.22
2019-06-26T09:06:50.147Z,1003.26
2019-06-26T09:07:50.144Z,1003.22
2019-06-26T09:08:50.100Z,1003.22
2019-06-26T09:09:50.092Z,1003.16
2019-06-26T09:10:50.088Z,1003.21
2019-06-26T09:11:50.071Z,1003.21
2019-06-26T09:12:50.089Z,1003.21
2019-06-26T09:13:50.052Z,1003.25
2019-06-26T09:14:50.051Z,1003.22
2019-06-26T09:15:50.319Z,1003.25
2019-06-26T09:16:50.037Z,1003.24
2019-06-26T09:17:50.027Z,1003.24
2019-06-26T09:18:50.032Z,1003.20
2019-06-26T09:19:50.007Z,1003.24
2019-06-26T09:20:50.018Z,1003.22
2019-06-26T09:21:50.027Z,1003.24
2019-06-26T09:22:49.994Z,1003.28
2019-06-26T09:23:49.979Z,1003.25
2019-06-26T09:24:50.022Z,1003.26
2019-06-26T09:25:49.973Z,1003.30
2019-06-26T09:26:49.954Z,1003.29
2019-06-26T09:27:49.954Z,1003.36
2019-06-26T09:28:49.944Z,1003.33
2019-06-26T09:29:49.927Z,1003.33
2019-06-26T09:30:50.014Z,1003.29
2019-06-26T09:31:49.919Z,1003.35
2019-06-26T09:32:49.905Z,1003.32
2019-06-26T09:33:49.903Z,1003.35
2019-06-26T09:34:49.943Z,1003.31
2019-06-26T09:35:49.895Z,1003.32
2019-06-26T09:36:50.060Z,1003.35
2019-06-26T09:37:49.922Z,1003.34
2019-06-26T09:38:49.880Z,1003.35
2019-06-26T09:39:49.877Z,1003.35
2019-06-26T09:40:49.852Z,1003.30
2019-06-26T09:41:49.894Z,1003.33
2019-06-26T09:42:49.854Z,1003.36
2019-06-26T09:43:49.842Z,1003.29
2019-06-26T09:44:49.822Z,1003.32
2019-06-26T09:45:49.823Z,1003.31
2019-06-26T09:46:49.819Z,1003.29
2019-06-26T09:47:49.811Z,1003.25
2019-06-26T09:48:53.202Z,1003.27
2019-06-26T09:49:49.835Z,1003.29
2019-06-26T09:50:49.786Z,1003.29
2019-06-26T09:51:49.807Z,1003.24
2019-06-26T09:52:49.763Z,1003.27
2019-06-26T09:53:49.783Z,1003.25
2019-06-26T09:54:49.807Z,1003.20
2019-06-26T09:55:49.746Z,1003.23
2019-06-26T09:56:49.745Z,1003.19
2019-06-26T09:57:49.765Z,1003.18
2019-06-26T09:58:49.732Z,1003.17
2019-06-26T09:59:49.742Z,1003.15
2019-06-26T10:00:49.747Z,1003.21
2019-06-26T10:01:49.709Z,1003.19
2019-06-26T10:02:49.714Z,1003.15
2019-06-26T10:03:49.728Z,1003.13
2019-06-26T10:04:49.680Z,1003.13
2019-06-26T10:05:49.752Z,1003.17
2019-06-26T10:06:49.689Z,1003.11
2019-06-26T10:07:49.736Z,1003.09
2019-06-26T10:08:49.657Z,1003.10
2019-06-26T10:09:51.399Z,1003.05
2019-06-26T10:10:49.649Z,1003.02
2019-06-26T10:11:49.644Z,1002.99
2019-06-26T10:12:49.658Z,1002.98
2019-06-26T10:13:49.620Z,1003.00
2019-06-26T10:14:49.618Z,1003.01
2019-06-26T10:15:49.610Z,1003.00
2019-06-26T10:16:49.605Z,1002.97
2019-06-26T10:17:49.611Z,1003.00
2019-06-26T10:18:49.624Z,1003.00
2019-06-26T10:19:49.583Z,1003.02
2019-06-26T10:20:49.574Z,1003.06
2019-06-26T10:21:49.568Z,1003.02
2019-06-26T10:22:49.558Z,1003.05
2019-06-26T10:23:49.551Z,1003.02
2019-06-26T10:24:49.566Z,1003.03
2019-06-26T10:25:49.559Z,1003.08
2019-06-26T10:26:49.533Z,1003.06
2019-06-26T10:27:49.542Z,1003.10
2019-06-26T10:28:49.539Z,1003.10
2019-06-26T10:29:49.532Z,1003.12
2019-06-26T10:30:49.530Z,1003.14
2019-06-26T10:31:49.497Z,1003.14
2019-06-26T10:32:49.548Z,1003.13
2019-06-26T10:33:49.493Z,1003.15
2019-06-26T10:34:49.481Z,1003.18
2019-06-26T10:35:49.472Z,1003.12
2019-06-26T10:36:49.493Z,1003.16
2019-06-26T10:37:49.467Z,1003.18
2019-06-26T10:38:49.456Z,1003.23
2019-06-26T10:39:49.447Z,1003.24
2019-06-26T10:40:49.441Z,1003.25
2019-06-26T10:41:49.441Z,1003.29
2019-06-26T10:42:49.457Z,1003.31
2019-06-26T10:43:49.416Z,1003.36
2019-06-26T10:44:49.413Z,1003.34
2019-06-26T10:45:49.398Z,1003.35
2019-06-26T10:46:49.442Z,1003.41
2019-06-26T10:47:49.387Z,1003.41
2019-06-26T10:48:49.511Z,1003.41
2019-06-26T10:49:49.377Z,1003.35
2019-06-26T10:50:57.151Z,1003.40
2019-06-26T10:51:50.385Z,1003.35
2019-06-26T10:52:49.362Z,1003.44
2019-06-26T10:53:49.371Z,1003.46
2019-06-26T10:54:49.367Z,1003.42
2019-06-26T10:55:49.338Z,1003.37
2019-06-26T10:56:49.332Z,1003.32
2019-06-26T10:57:49.329Z,1003.30
2019-06-26T10:58:49.399Z,1003.34
2019-06-26T10:59:49.307Z,1003.32
2019-06-26T11:00:49.318Z,1003.34
2019-06-26T11:01:49.289Z,1003.33
2019-06-26T11:02:49.290Z,1003.30
2019-06-26T11:03:49.292Z,1003.25
2019-06-26T11:04:49.289Z,1003.30
2019-06-26T11:05:49.271Z,1003.25
2019-06-26T11:06:50.930Z,1003.19
2019-06-26T11:07:49.245Z,1003.13
2019-06-26T11:08:49.253Z,1003.11
2019-06-26T11:09:49.236Z,1003.13
2019-06-26T11:10:49.246Z,1003.14
2019-06-26T11:11:49.227Z,1003.08
2019-06-26T11:12:49.242Z,1003.10
2019-06-26T11:13:49.201Z,1003.01
2019-06-26T11:14:49.274Z,1002.99
2019-06-26T11:15:49.195Z,1003.02
2019-06-26T11:16:49.208Z,1003.00
2019-06-26T11:17:49.178Z,1002.97
2019-06-26T11:18:49.202Z,1003.00
2019-06-26T11:19:49.173Z,1002.97
2019-06-26T11:20:49.182Z,1003.02
2019-06-26T11:21:49.220Z,1002.97
2019-06-26T11:22:49.147Z,1003.00
2019-06-26T11:23:49.132Z,1002.99
2019-06-26T11:24:49.182Z,1002.92
2019-06-26T11:25:49.129Z,1002.92
2019-06-26T11:26:49.109Z,1002.93
2019-06-26T11:27:49.118Z,1002.91
2019-06-26T11:28:49.120Z,1003.00
2019-06-26T11:29:49.089Z,1002.98
2019-06-26T11:30:49.089Z,1003.03
2019-06-26T11:31:49.076Z,1003.06
2019-06-26T11:32:49.063Z,1003.01
2019-06-26T11:33:49.077Z,1003.03
2019-06-26T11:34:49.049Z,1003.05
2019-06-26T11:35:49.036Z,1003.03
2019-06-26T11:37:02.788Z,1003.04
2019-06-26T11:37:50.016Z,1003.07
2019-06-26T11:38:49.029Z,1003.09
2019-06-26T11:39:49.019Z,1003.05
2019-06-26T11:40:49.024Z,1003.06
2019-06-26T11:41:48.999Z,1003.08
2019-06-26T11:42:49.007Z,1003.09
2019-06-26T11:43:49.008Z,1003.12
2019-06-26T11:44:48.967Z,1003.10
2019-06-26T11:45:48.969Z,1003.04
2019-06-26T11:46:48.957Z,1003.07
2019-06-26T11:47:48.943Z,1003.06
2019-06-26T11:48:48.959Z,1003.05
2019-06-26T11:49:59.281Z,1003.01
2019-06-26T11:50:49.929Z,1003.06
2019-06-26T11:51:48.951Z,1003.05
2019-06-26T11:52:48.956Z,1003.00
2019-06-26T11:53:48.892Z,1003.04
2019-06-26T11:55:02.202Z,1003.03
2019-06-26T11:55:49.885Z,1003.05
2019-06-26T11:56:48.947Z,1003.02
2019-06-26T11:57:48.864Z,1003.02
2019-06-26T11:58:48.867Z,1003.01
2019-06-26T11:59:48.847Z,1002.90
2019-06-26T12:00:48.860Z,1002.46
2019-06-26T12:01:48.927Z,1002.15
2019-06-26T12:02:48.835Z,1002.17
2019-06-26T12:03:48.816Z,1002.14
2019-06-26T12:04:48.820Z,1002.11
2019-06-26T12:05:48.804Z,1002.07
2019-06-26T12:06:48.813Z,1002.17
2019-06-26T12:07:48.780Z,1002.13
2019-06-26T12:08:48.826Z,1002.08
2019-06-26T12:09:48.828Z,1002.14
2019-06-26T12:10:48.758Z,1002.11
2019-06-26T12:11:48.740Z,1002.10
2019-06-26T12:12:48.763Z,1002.10